sensor_id;sensor_type;location;lat;lon;timestamp;P1;durP1;ratioP1;P2;durP2;ratioP2
8312;SDS011;4194;43.408;24.626;2022-11-11T00:00:29;48.27;;;31.87;;
8312;SDS011;4194;43.408;24.626;2022-11-11T00:02:55;44.90;;;31.07;;
8312;SDS011;4194;43.408;24.626;2022-11-11T00:05:21;47.73;;;30.03;;
8312;SDS011;4194;43.408;24.626;2022-11-11T00:07:47;42.90;;;29.43;;
8312;SDS011;4194;43.408;24.626;2022-11-11T00:10:13;48.13;;;30.00;;
8312;SDS011;4194;43.408;24.626;2022-11-11T00:12:39;46.20;;;29.50;;
8312;SDS011;4194;43.408;24.626;2022-11-11T00:15:05;45.07;;;31.40;;
8312;SDS011;4194;43.408;24.626;2022-11-11T00:17:34;47.87;;;31.47;;
8312;SDS011;4194;43.408;24.626;2022-11-11T00:20:19;51.63;;;33.53;;
8312;SDS011;4194;43.408;24.626;2022-11-11T00:23:03;52.13;;;33.40;;
8312;SDS011;4194;43.408;24.626;2022-11-11T00:25:53;54.53;;;33.17;;
8312;SDS011;4194;43.408;24.626;2022-11-11T00:28:19;48.97;;;33.60;;
8312;SDS011;4194;43.408;24.626;2022-11-11T00:30:45;50.47;;;34.30;;
8312;SDS011;4194;43.408;24.626;2022-11-11T00:33:11;54.97;;;34.13;;
8312;SDS011;4194;43.408;24.626;2022-11-11T00:35:36;51.77;;;32.10;;
8312;SDS011;4194;43.408;24.626;2022-11-11T00:38:17;57.27;;;34.00;;
8312;SDS011;4194;43.408;24.626;2022-11-11T00:41:02;53.47;;;33.43;;
8312;SDS011;4194;43.408;24.626;2022-11-11T00:43:27;50.63;;;33.87;;
8312;SDS011;4194;43.408;24.626;2022-11-11T00:45:53;52.33;;;34.07;;
8312;SDS011;4194;43.408;24.626;2022-11-11T00:48:39;56.55;;;41.58;;
8312;SDS011;4194;43.408;24.626;2022-11-11T00:51:23;54.60;;;35.80;;
8312;SDS011;4194;43.408;24.626;2022-11-11T00:53:49;53.93;;;34.47;;
8312;SDS011;4194;43.408;24.626;2022-11-11T00:56:15;52.53;;;35.17;;
8312;SDS011;4194;43.408;24.626;2022-11-11T00:58:41;50.80;;;34.33;;
8312;SDS011;4194;43.408;24.626;2022-11-11T01:01:07;55.10;;;34.37;;
8312;SDS011;4194;43.408;24.626;2022-11-11T01:03:33;49.80;;;32.37;;
8312;SDS011;4194;43.408;24.626;2022-11-11T01:05:59;51.70;;;33.60;;
8312;SDS011;4194;43.408;24.626;2022-11-11T01:08:25;52.77;;;32.80;;
8312;SDS011;4194;43.408;24.626;2022-11-11T01:10:51;48.03;;;31.03;;
8312;SDS011;4194;43.408;24.626;2022-11-11T01:13:21;53.87;;;33.00;;
8312;SDS011;4194;43.408;24.626;2022-11-11T01:15:50;48.67;;;32.10;;
8312;SDS011;4194;43.408;24.626;2022-11-11T01:18:21;50.73;;;33.07;;
8312;SDS011;4194;43.408;24.626;2022-11-11T01:20:56;48.57;;;31.67;;
8312;SDS011;4194;43.408;24.626;2022-11-11T01:23:22;51.03;;;32.60;;
8312;SDS011;4194;43.408;24.626;2022-11-11T01:25:47;47.47;;;32.27;;
8312;SDS011;4194;43.408;24.626;2022-11-11T01:28:13;48.30;;;31.20;;
8312;SDS011;4194;43.408;24.626;2022-11-11T01:30:39;51.73;;;31.03;;
8312;SDS011;4194;43.408;24.626;2022-11-11T01:33:04;50.27;;;31.83;;
8312;SDS011;4194;43.408;24.626;2022-11-11T01:35:30;44.40;;;31.03;;
8312;SDS011;4194;43.408;24.626;2022-11-11T01:37:57;42.63;;;30.40;;
8312;SDS011;4194;43.408;24.626;2022-11-11T01:40:23;49.73;;;32.50;;
8312;SDS011;4194;43.408;24.626;2022-11-11T01:42:50;48.57;;;32.97;;
8312;SDS011;4194;43.408;24.626;2022-11-11T01:48:25;52.73;;;33.03;;
8312;SDS011;4194;43.408;24.626;2022-11-11T01:51:22;56.33;;;33.83;;
8312;SDS011;4194;43.408;24.626;2022-11-11T01:53:59;44.77;;;32.73;;
8312;SDS011;4194;43.408;24.626;2022-11-11T01:56:28;56.03;;;32.83;;
8312;SDS011;4194;43.408;24.626;2022-11-11T01:58:55;51.37;;;34.40;;
8312;SDS011;4194;43.408;24.626;2022-11-11T02:01:24;47.77;;;31.97;;
8312;SDS011;4194;43.408;24.626;2022-11-11T02:03:50;49.77;;;32.07;;
8312;SDS011;4194;43.408;24.626;2022-11-11T02:06:37;47.90;;;32.27;;
8312;SDS011;4194;43.408;24.626;2022-11-11T02:09:04;47.30;;;31.53;;
8312;SDS011;4194;43.408;24.626;2022-11-11T02:11:30;52.20;;;33.03;;
8312;SDS011;4194;43.408;24.626;2022-11-11T02:14:17;51.80;;;33.63;;
8312;SDS011;4194;43.408;24.626;2022-11-11T02:17:04;49.33;;;32.57;;
8312;SDS011;4194;43.408;24.626;2022-11-11T02:19:54;55.03;;;32.53;;
8312;SDS011;4194;43.408;24.626;2022-11-11T02:25:06;45.70;;;34.97;;
8312;SDS011;4194;43.408;24.626;2022-11-11T02:27:34;46.63;;;31.40;;
8312;SDS011;4194;43.408;24.626;2022-11-11T02:30:05;45.87;;;30.50;;
8312;SDS011;4194;43.408;24.626;2022-11-11T02:32:39;46.67;;;29.40;;
8312;SDS011;4194;43.408;24.626;2022-11-11T02:35:13;47.60;;;31.10;;
8312;SDS011;4194;43.408;24.626;2022-11-11T02:37:43;44.00;;;29.07;;
8312;SDS011;4194;43.408;24.626;2022-11-11T02:40:13;43.37;;;28.73;;
8312;SDS011;4194;43.408;24.626;2022-11-11T02:42:42;46.33;;;30.17;;
8312;SDS011;4194;43.408;24.626;2022-11-11T02:45:08;44.27;;;28.90;;
8312;SDS011;4194;43.408;24.626;2022-11-11T02:47:35;41.17;;;28.60;;
8312;SDS011;4194;43.408;24.626;2022-11-11T02:50:00;38.37;;;27.43;;
8312;SDS011;4194;43.408;24.626;2022-11-11T02:52:26;40.63;;;28.97;;
8312;SDS011;4194;43.408;24.626;2022-11-11T02:54:52;43.17;;;28.40;;
8312;SDS011;4194;43.408;24.626;2022-11-11T02:57:17;40.20;;;27.30;;
8312;SDS011;4194;43.408;24.626;2022-11-11T02:59:43;38.93;;;27.97;;
8312;SDS011;4194;43.408;24.626;2022-11-11T03:02:09;37.17;;;26.93;;
8312;SDS011;4194;43.408;24.626;2022-11-11T03:04:35;39.93;;;26.43;;
8312;SDS011;4194;43.408;24.626;2022-11-11T03:07:02;44.33;;;28.03;;
8312;SDS011;4194;43.408;24.626;2022-11-11T03:09:28;37.00;;;25.60;;
8312;SDS011;4194;43.408;24.626;2022-11-11T03:11:54;44.07;;;27.40;;
8312;SDS011;4194;43.408;24.626;2022-11-11T03:14:19;42.03;;;27.67;;
8312;SDS011;4194;43.408;24.626;2022-11-11T03:16:45;43.67;;;27.70;;
8312;SDS011;4194;43.408;24.626;2022-11-11T03:19:30;39.87;;;26.37;;
8312;SDS011;4194;43.408;24.626;2022-11-11T03:21:56;39.73;;;26.27;;
8312;SDS011;4194;43.408;24.626;2022-11-11T03:24:22;39.30;;;26.23;;
8312;SDS011;4194;43.408;24.626;2022-11-11T03:26:48;39.93;;;26.30;;
8312;SDS011;4194;43.408;24.626;2022-11-11T03:29:14;40.57;;;26.03;;
8312;SDS011;4194;43.408;24.626;2022-11-11T03:31:40;40.10;;;26.77;;
8312;SDS011;4194;43.408;24.626;2022-11-11T03:34:07;38.70;;;25.77;;
8312;SDS011;4194;43.408;24.626;2022-11-11T03:36:44;34.77;;;25.37;;
8312;SDS011;4194;43.408;24.626;2022-11-11T03:39:28;38.50;;;25.63;;
8312;SDS011;4194;43.408;24.626;2022-11-11T03:41:55;38.27;;;25.07;;
8312;SDS011;4194;43.408;24.626;2022-11-11T03:44:21;34.03;;;24.33;;
8312;SDS011;4194;43.408;24.626;2022-11-11T03:46:47;36.40;;;25.13;;
8312;SDS011;4194;43.408;24.626;2022-11-11T03:49:12;34.90;;;24.90;;
8312;SDS011;4194;43.408;24.626;2022-11-11T03:51:38;35.93;;;25.70;;
8312;SDS011;4194;43.408;24.626;2022-11-11T03:54:04;34.43;;;25.13;;
8312;SDS011;4194;43.408;24.626;2022-11-11T03:56:30;34.50;;;25.00;;
8312;SDS011;4194;43.408;24.626;2022-11-11T03:58:55;33.47;;;23.80;;
8312;SDS011;4194;43.408;24.626;2022-11-11T04:01:21;34.47;;;24.87;;
8312;SDS011;4194;43.408;24.626;2022-11-11T04:04:06;35.53;;;25.07;;
8312;SDS011;4194;43.408;24.626;2022-11-11T04:06:51;37.20;;;24.27;;
8312;SDS011;4194;43.408;24.626;2022-11-11T04:09:35;36.60;;;25.20;;
8312;SDS011;4194;43.408;24.626;2022-11-11T04:12:20;34.40;;;24.30;;
8312;SDS011;4194;43.408;24.626;2022-11-11T04:14:47;38.40;;;25.47;;
8312;SDS011;4194;43.408;24.626;2022-11-11T04:17:31;40.90;;;26.40;;
8312;SDS011;4194;43.408;24.626;2022-11-11T04:19:57;34.87;;;24.70;;
8312;SDS011;4194;43.408;24.626;2022-11-11T04:22:41;38.53;;;25.30;;
8312;SDS011;4194;43.408;24.626;2022-11-11T04:25:07;37.30;;;24.90;;
8312;SDS011;4194;43.408;24.626;2022-11-11T04:27:55;39.07;;;26.50;;
8312;SDS011;4194;43.408;24.626;2022-11-11T04:30:41;42.47;;;25.90;;
8312;SDS011;4194;43.408;24.626;2022-11-11T04:33:07;36.87;;;26.37;;
8312;SDS011;4194;43.408;24.626;2022-11-11T04:35:33;35.90;;;25.33;;
8312;SDS011;4194;43.408;24.626;2022-11-11T04:37:59;34.20;;;25.10;;
8312;SDS011;4194;43.408;24.626;2022-11-11T04:40:43;41.00;;;24.97;;
8312;SDS011;4194;43.408;24.626;2022-11-11T04:43:27;33.23;;;24.20;;
8312;SDS011;4194;43.408;24.626;2022-11-11T04:45:57;40.20;;;24.90;;
8312;SDS011;4194;43.408;24.626;2022-11-11T04:48:23;34.50;;;25.83;;
8312;SDS011;4194;43.408;24.626;2022-11-11T04:50:49;37.47;;;25.67;;
8312;SDS011;4194;43.408;24.626;2022-11-11T04:53:15;34.97;;;25.00;;
8312;SDS011;4194;43.408;24.626;2022-11-11T04:55:41;36.57;;;24.90;;
8312;SDS011;4194;43.408;24.626;2022-11-11T04:58:28;37.97;;;26.23;;
8312;SDS011;4194;43.408;24.626;2022-11-11T05:00:55;34.87;;;24.83;;
8312;SDS011;4194;43.408;24.626;2022-11-11T05:03:21;40.10;;;25.73;;
8312;SDS011;4194;43.408;24.626;2022-11-11T05:05:52;36.97;;;24.17;;
8312;SDS011;4194;43.408;24.626;2022-11-11T05:08:49;32.57;;;24.57;;
8312;SDS011;4194;43.408;24.626;2022-11-11T05:14:15;38.37;;;24.83;;
8312;SDS011;4194;43.408;24.626;2022-11-11T05:16:59;32.47;;;23.53;;
8312;SDS011;4194;43.408;24.626;2022-11-11T05:19:43;36.83;;;25.60;;
8312;SDS011;4194;43.408;24.626;2022-11-11T05:22:40;33.73;;;24.60;;
8312;SDS011;4194;43.408;24.626;2022-11-11T05:25:07;36.57;;;23.73;;
8312;SDS011;4194;43.408;24.626;2022-11-11T05:27:53;33.17;;;23.40;;
8312;SDS011;4194;43.408;24.626;2022-11-11T05:30:22;31.53;;;22.13;;
8312;SDS011;4194;43.408;24.626;2022-11-11T05:32:48;30.10;;;21.77;;
8312;SDS011;4194;43.408;24.626;2022-11-11T05:35:15;29.83;;;21.17;;
8312;SDS011;4194;43.408;24.626;2022-11-11T05:37:41;36.67;;;22.87;;
8312;SDS011;4194;43.408;24.626;2022-11-11T05:40:08;33.80;;;21.60;;
8312;SDS011;4194;43.408;24.626;2022-11-11T05:42:34;41.10;;;20.97;;
8312;SDS011;4194;43.408;24.626;2022-11-11T05:45:00;32.30;;;22.33;;
8312;SDS011;4194;43.408;24.626;2022-11-11T05:47:25;31.50;;;22.07;;
8312;SDS011;4194;43.408;24.626;2022-11-11T05:49:51;30.33;;;21.77;;
8312;SDS011;4194;43.408;24.626;2022-11-11T05:52:17;31.53;;;21.53;;
8312;SDS011;4194;43.408;24.626;2022-11-11T05:54:44;28.50;;;20.83;;
8312;SDS011;4194;43.408;24.626;2022-11-11T05:57:10;32.03;;;21.77;;
8312;SDS011;4194;43.408;24.626;2022-11-11T05:59:35;29.90;;;21.07;;
8312;SDS011;4194;43.408;24.626;2022-11-11T06:02:01;29.50;;;21.43;;
8312;SDS011;4194;43.408;24.626;2022-11-11T06:04:27;30.60;;;20.63;;
8312;SDS011;4194;43.408;24.626;2022-11-11T06:06:53;30.07;;;21.60;;
8312;SDS011;4194;43.408;24.626;2022-11-11T06:09:19;31.20;;;20.90;;
8312;SDS011;4194;43.408;24.626;2022-11-11T06:11:45;30.00;;;21.70;;
8312;SDS011;4194;43.408;24.626;2022-11-11T06:14:11;31.83;;;21.63;;
8312;SDS011;4194;43.408;24.626;2022-11-11T06:16:37;33.87;;;21.30;;
8312;SDS011;4194;43.408;24.626;2022-11-11T06:19:02;34.50;;;22.23;;
8312;SDS011;4194;43.408;24.626;2022-11-11T06:21:29;37.10;;;22.83;;
8312;SDS011;4194;43.408;24.626;2022-11-11T06:23:56;38.53;;;21.80;;
8312;SDS011;4194;43.408;24.626;2022-11-11T06:26:22;34.20;;;22.23;;
8312;SDS011;4194;43.408;24.626;2022-11-11T06:28:48;34.63;;;22.93;;
8312;SDS011;4194;43.408;24.626;2022-11-11T06:31:22;38.73;;;23.83;;
8312;SDS011;4194;43.408;24.626;2022-11-11T06:33:51;37.70;;;22.73;;
8312;SDS011;4194;43.408;24.626;2022-11-11T06:36:18;36.33;;;23.17;;
8312;SDS011;4194;43.408;24.626;2022-11-11T06:38:45;33.63;;;23.63;;
8312;SDS011;4194;43.408;24.626;2022-11-11T06:41:12;36.13;;;23.97;;
8312;SDS011;4194;43.408;24.626;2022-11-11T06:43:41;37.30;;;23.33;;
8312;SDS011;4194;43.408;24.626;2022-11-11T06:46:10;39.37;;;23.00;;
8312;SDS011;4194;43.408;24.626;2022-11-11T06:48:41;39.07;;;24.37;;
8312;SDS011;4194;43.408;24.626;2022-11-11T06:51:08;42.13;;;25.33;;
8312;SDS011;4194;43.408;24.626;2022-11-11T06:53:35;36.90;;;25.27;;
8312;SDS011;4194;43.408;24.626;2022-11-11T06:56:01;44.13;;;25.83;;
8312;SDS011;4194;43.408;24.626;2022-11-11T06:58:26;45.23;;;26.03;;
8312;SDS011;4194;43.408;24.626;2022-11-11T07:00:52;40.97;;;26.33;;
8312;SDS011;4194;43.408;24.626;2022-11-11T07:03:18;44.77;;;27.37;;
8312;SDS011;4194;43.408;24.626;2022-11-11T07:05:45;41.47;;;25.67;;
8312;SDS011;4194;43.408;24.626;2022-11-11T07:08:12;41.63;;;25.13;;
8312;SDS011;4194;43.408;24.626;2022-11-11T07:10:39;44.13;;;26.23;;
8312;SDS011;4194;43.408;24.626;2022-11-11T07:13:08;40.83;;;25.97;;
8312;SDS011;4194;43.408;24.626;2022-11-11T07:15:34;40.10;;;24.53;;
8312;SDS011;4194;43.408;24.626;2022-11-11T07:18:01;41.57;;;25.53;;
8312;SDS011;4194;43.408;24.626;2022-11-11T07:20:27;44.33;;;25.93;;
8312;SDS011;4194;43.408;24.626;2022-11-11T07:22:53;44.70;;;26.23;;
8312;SDS011;4194;43.408;24.626;2022-11-11T07:25:19;42.83;;;26.87;;
8312;SDS011;4194;43.408;24.626;2022-11-11T07:27:44;42.50;;;25.57;;
8312;SDS011;4194;43.408;24.626;2022-11-11T07:30:10;47.37;;;26.00;;
8312;SDS011;4194;43.408;24.626;2022-11-11T07:32:38;44.93;;;27.13;;
8312;SDS011;4194;43.408;24.626;2022-11-11T07:35:10;46.43;;;26.90;;
8312;SDS011;4194;43.408;24.626;2022-11-11T07:37:38;42.63;;;25.43;;
8312;SDS011;4194;43.408;24.626;2022-11-11T07:40:04;43.57;;;25.43;;
8312;SDS011;4194;43.408;24.626;2022-11-11T07:42:31;46.30;;;26.97;;
8312;SDS011;4194;43.408;24.626;2022-11-11T07:44:59;45.72;;;29.10;;
8312;SDS011;4194;43.408;24.626;2022-11-11T07:47:25;45.00;;;27.40;;
8312;SDS011;4194;43.408;24.626;2022-11-11T07:49:50;44.70;;;26.13;;
8312;SDS011;4194;43.408;24.626;2022-11-11T07:52:16;47.10;;;29.23;;
8312;SDS011;4194;43.408;24.626;2022-11-11T07:54:42;54.90;;;30.60;;
8312;SDS011;4194;43.408;24.626;2022-11-11T07:57:08;66.70;;;39.20;;
8312;SDS011;4194;43.408;24.626;2022-11-11T07:59:33;68.73;;;39.20;;
8312;SDS011;4194;43.408;24.626;2022-11-11T08:01:59;69.43;;;38.57;;
8312;SDS011;4194;43.408;24.626;2022-11-11T08:04:25;55.83;;;33.63;;
8312;SDS011;4194;43.408;24.626;2022-11-11T08:06:50;66.00;;;32.60;;
8312;SDS011;4194;43.408;24.626;2022-11-11T08:09:16;63.47;;;30.17;;
8312;SDS011;4194;43.408;24.626;2022-11-11T08:11:41;51.43;;;26.53;;
8312;SDS011;4194;43.408;24.626;2022-11-11T08:14:26;59.70;;;28.37;;
8312;SDS011;4194;43.408;24.626;2022-11-11T08:16:51;44.50;;;25.17;;
8312;SDS011;4194;43.408;24.626;2022-11-11T08:19:17;49.03;;;27.47;;
8312;SDS011;4194;43.408;24.626;2022-11-11T08:21:43;42.50;;;24.37;;
8312;SDS011;4194;43.408;24.626;2022-11-11T08:24:27;44.43;;;26.03;;
8312;SDS011;4194;43.408;24.626;2022-11-11T08:27:03;38.10;;;23.33;;
8312;SDS011;4194;43.408;24.626;2022-11-11T08:29:29;41.87;;;24.50;;
8312;SDS011;4194;43.408;24.626;2022-11-11T08:31:55;44.77;;;26.03;;
8312;SDS011;4194;43.408;24.626;2022-11-11T08:34:21;40.27;;;24.70;;
8312;SDS011;4194;43.408;24.626;2022-11-11T08:36:47;45.43;;;26.10;;
8312;SDS011;4194;43.408;24.626;2022-11-11T08:39:16;41.07;;;24.20;;
8312;SDS011;4194;43.408;24.626;2022-11-11T08:41:42;44.07;;;26.90;;
8312;SDS011;4194;43.408;24.626;2022-11-11T08:44:08;43.30;;;24.90;;
8312;SDS011;4194;43.408;24.626;2022-11-11T08:46:34;40.40;;;25.07;;
8312;SDS011;4194;43.408;24.626;2022-11-11T08:48:59;44.80;;;25.93;;
8312;SDS011;4194;43.408;24.626;2022-11-11T08:51:25;43.27;;;24.83;;
8312;SDS011;4194;43.408;24.626;2022-11-11T08:53:50;45.00;;;26.63;;
8312;SDS011;4194;43.408;24.626;2022-11-11T08:56:16;45.43;;;26.27;;
8312;SDS011;4194;43.408;24.626;2022-11-11T08:58:43;49.57;;;28.37;;
8312;SDS011;4194;43.408;24.626;2022-11-11T09:01:12;49.80;;;29.23;;
8312;SDS011;4194;43.408;24.626;2022-11-11T09:03:38;48.97;;;27.73;;
8312;SDS011;4194;43.408;24.626;2022-11-11T09:06:07;54.03;;;30.10;;
8312;SDS011;4194;43.408;24.626;2022-11-11T09:08:34;51.37;;;28.37;;
8312;SDS011;4194;43.408;24.626;2022-11-11T09:10:59;53.20;;;31.57;;
8312;SDS011;4194;43.408;24.626;2022-11-11T09:13:25;63.47;;;30.13;;
8312;SDS011;4194;43.408;24.626;2022-11-11T09:15:52;50.30;;;32.00;;
8312;SDS011;4194;43.408;24.626;2022-11-11T09:18:18;56.80;;;32.30;;
8312;SDS011;4194;43.408;24.626;2022-11-11T09:20:44;58.03;;;32.77;;
8312;SDS011;4194;43.408;24.626;2022-11-11T09:23:09;57.40;;;32.07;;
8312;SDS011;4194;43.408;24.626;2022-11-11T09:25:35;59.07;;;34.23;;
8312;SDS011;4194;43.408;24.626;2022-11-11T09:28:01;51.53;;;33.23;;
8312;SDS011;4194;43.408;24.626;2022-11-11T09:30:27;57.57;;;31.47;;
8312;SDS011;4194;43.408;24.626;2022-11-11T09:32:53;56.13;;;33.33;;
8312;SDS011;4194;43.408;24.626;2022-11-11T09:35:19;59.97;;;34.60;;
8312;SDS011;4194;43.408;24.626;2022-11-11T09:37:52;56.60;;;33.23;;
8312;SDS011;4194;43.408;24.626;2022-11-11T09:40:23;57.87;;;32.27;;
8312;SDS011;4194;43.408;24.626;2022-11-11T09:43:04;61.27;;;32.20;;
8312;SDS011;4194;43.408;24.626;2022-11-11T09:51:23;60.60;;;33.43;;
8312;SDS011;4194;43.408;24.626;2022-11-11T09:53:57;62.90;;;32.67;;
8312;SDS011;4194;43.408;24.626;2022-11-11T09:56:28;66.03;;;34.13;;
8312;SDS011;4194;43.408;24.626;2022-11-11T09:59:04;62.47;;;35.87;;
8312;SDS011;4194;43.408;24.626;2022-11-11T10:01:37;65.33;;;33.27;;
8312;SDS011;4194;43.408;24.626;2022-11-11T10:04:29;63.67;;;35.30;;
8312;SDS011;4194;43.408;24.626;2022-11-11T10:07:27;66.10;;;36.90;;
8312;SDS011;4194;43.408;24.626;2022-11-11T10:10:07;72.37;;;38.03;;
8312;SDS011;4194;43.408;24.626;2022-11-11T10:12:42;74.23;;;37.17;;
8312;SDS011;4194;43.408;24.626;2022-11-11T10:15:13;67.47;;;38.00;;
8312;SDS011;4194;43.408;24.626;2022-11-11T10:22:59;57.47;;;35.23;;
8312;SDS011;4194;43.408;24.626;2022-11-11T10:25:32;61.47;;;35.23;;
8312;SDS011;4194;43.408;24.626;2022-11-11T10:28:00;59.70;;;35.07;;
8312;SDS011;4194;43.408;24.626;2022-11-11T10:30:29;53.77;;;31.30;;
8312;SDS011;4194;43.408;24.626;2022-11-11T10:33:00;49.77;;;30.07;;
8312;SDS011;4194;43.408;24.626;2022-11-11T10:35:39;48.00;;;28.67;;
8312;SDS011;4194;43.408;24.626;2022-11-11T10:40:41;39.40;;;26.17;;
8312;SDS011;4194;43.408;24.626;2022-11-11T10:46:02;33.13;;;23.07;;
8312;SDS011;4194;43.408;24.626;2022-11-11T10:51:04;32.10;;;22.63;;
8312;SDS011;4194;43.408;24.626;2022-11-11T10:56:30;27.63;;;21.95;;
8312;SDS011;4194;43.408;24.626;2022-11-11T11:02:39;24.00;;;18.57;;
8312;SDS011;4194;43.408;24.626;2022-11-11T11:05:30;22.23;;;16.93;;
8312;SDS011;4194;43.408;24.626;2022-11-11T11:08:11;25.83;;;18.07;;
8312;SDS011;4194;43.408;24.626;2022-11-11T11:10:46;25.17;;;16.00;;
8312;SDS011;4194;43.408;24.626;2022-11-11T11:13:15;20.97;;;15.57;;
8312;SDS011;4194;43.408;24.626;2022-11-11T11:15:57;22.53;;;16.60;;
8312;SDS011;4194;43.408;24.626;2022-11-11T11:18:28;23.65;;;16.38;;
8312;SDS011;4194;43.408;24.626;2022-11-11T11:20:58;20.67;;;14.33;;
8312;SDS011;4194;43.408;24.626;2022-11-11T11:23:40;19.40;;;14.57;;
8312;SDS011;4194;43.408;24.626;2022-11-11T11:26:08;18.07;;;14.40;;
8312;SDS011;4194;43.408;24.626;2022-11-11T11:28:50;22.73;;;15.40;;
8312;SDS011;4194;43.408;24.626;2022-11-11T11:31:35;16.67;;;12.17;;
8312;SDS011;4194;43.408;24.626;2022-11-11T11:34:03;17.93;;;12.13;;
8312;SDS011;4194;43.408;24.626;2022-11-11T11:36:29;14.37;;;11.80;;
8312;SDS011;4194;43.408;24.626;2022-11-11T11:38:55;16.07;;;12.53;;
8312;SDS011;4194;43.408;24.626;2022-11-11T11:41:35;13.77;;;11.53;;
8312;SDS011;4194;43.408;24.626;2022-11-11T11:44:02;14.23;;;10.70;;
8312;SDS011;4194;43.408;24.626;2022-11-11T11:46:48;18.37;;;11.83;;
8312;SDS011;4194;43.408;24.626;2022-11-11T11:49:25;12.33;;;10.80;;
8312;SDS011;4194;43.408;24.626;2022-11-11T11:55:05;16.70;;;11.10;;
8312;SDS011;4194;43.408;24.626;2022-11-11T12:00:44;14.40;;;11.30;;
8312;SDS011;4194;43.408;24.626;2022-11-11T12:06:19;14.63;;;12.37;;
8312;SDS011;4194;43.408;24.626;2022-11-11T12:14:52;17.07;;;12.20;;
8312;SDS011;4194;43.408;24.626;2022-11-11T12:34:03;18.73;;;12.87;;
8312;SDS011;4194;43.408;24.626;2022-11-11T12:45:47;15.87;;;12.17;;
8312;SDS011;4194;43.408;24.626;2022-11-11T12:53:59;17.43;;;12.87;;
8312;SDS011;4194;43.408;24.626;2022-11-11T12:56:35;17.13;;;12.10;;
8312;SDS011;4194;43.408;24.626;2022-11-11T13:02:14;18.30;;;13.37;;
8312;SDS011;4194;43.408;24.626;2022-11-11T13:12:29;18.77;;;14.40;;
8312;SDS011;4194;43.408;24.626;2022-11-11T13:15:18;15.90;;;12.63;;
8312;SDS011;4194;43.408;24.626;2022-11-11T13:17:47;17.13;;;13.00;;
8312;SDS011;4194;43.408;24.626;2022-11-11T13:22:58;15.30;;;12.57;;
8312;SDS011;4194;43.408;24.626;2022-11-11T13:25:24;15.03;;;12.27;;
8312;SDS011;4194;43.408;24.626;2022-11-11T13:28:02;16.10;;;13.40;;
8312;SDS011;4194;43.408;24.626;2022-11-11T13:34:02;12.90;;;11.27;;
8312;SDS011;4194;43.408;24.626;2022-11-11T13:36:32;17.60;;;12.87;;
8312;SDS011;4194;43.408;24.626;2022-11-11T13:39:23;17.50;;;13.13;;
8312;SDS011;4194;43.408;24.626;2022-11-11T13:42:02;19.07;;;14.70;;
8312;SDS011;4194;43.408;24.626;2022-11-11T13:44:33;16.70;;;13.07;;
8312;SDS011;4194;43.408;24.626;2022-11-11T13:47:11;20.83;;;15.70;;
8312;SDS011;4194;43.408;24.626;2022-11-11T13:49:58;19.37;;;14.97;;
8312;SDS011;4194;43.408;24.626;2022-11-11T13:52:36;27.53;;;21.27;;
8312;SDS011;4194;43.408;24.626;2022-11-11T13:55:08;18.40;;;15.93;;
8312;SDS011;4194;43.408;24.626;2022-11-11T13:57:48;17.60;;;13.77;;
8312;SDS011;4194;43.408;24.626;2022-11-11T14:02:41;26.63;;;19.23;;
8312;SDS011;4194;43.408;24.626;2022-11-11T14:15:32;12.63;;;9.93;;
8312;SDS011;4194;43.408;24.626;2022-11-11T14:20:44;10.37;;;7.90;;
8312;SDS011;4194;43.408;24.626;2022-11-11T14:25:51;6.80;;;5.97;;
8312;SDS011;4194;43.408;24.626;2022-11-11T14:41:53;6.37;;;5.40;;
8312;SDS011;4194;43.408;24.626;2022-11-11T14:52:37;6.87;;;5.10;;
8312;SDS011;4194;43.408;24.626;2022-11-11T14:55:20;8.13;;;5.17;;
8312;SDS011;4194;43.408;24.626;2022-11-11T15:00:57;6.33;;;5.20;;
8312;SDS011;4194;43.408;24.626;2022-11-11T15:03:45;5.50;;;4.80;;
8312;SDS011;4194;43.408;24.626;2022-11-11T15:06:17;5.70;;;4.47;;
8312;SDS011;4194;43.408;24.626;2022-11-11T15:35:28;6.83;;;4.87;;
8312;SDS011;4194;43.408;24.626;2022-11-11T15:37:59;4.97;;;4.07;;
8312;SDS011;4194;43.408;24.626;2022-11-11T15:40:31;5.30;;;4.23;;
8312;SDS011;4194;43.408;24.626;2022-11-11T15:43:12;4.43;;;3.47;;
8312;SDS011;4194;43.408;24.626;2022-11-11T15:45:41;5.43;;;4.30;;
8312;SDS011;4194;43.408;24.626;2022-11-11T15:48:17;4.37;;;3.60;;
8312;SDS011;4194;43.408;24.626;2022-11-11T15:50:52;7.13;;;3.63;;
8312;SDS011;4194;43.408;24.626;2022-11-11T15:53:22;5.20;;;3.90;;
8312;SDS011;4194;43.408;24.626;2022-11-11T15:55:56;4.37;;;3.97;;
8312;SDS011;4194;43.408;24.626;2022-11-11T15:58:28;7.00;;;5.63;;
8312;SDS011;4194;43.408;24.626;2022-11-11T16:00:56;8.33;;;6.53;;
8312;SDS011;4194;43.408;24.626;2022-11-11T16:03:33;10.30;;;7.53;;
8312;SDS011;4194;43.408;24.626;2022-11-11T16:06:08;10.37;;;7.00;;
8312;SDS011;4194;43.408;24.626;2022-11-11T16:08:45;8.80;;;7.17;;
8312;SDS011;4194;43.408;24.626;2022-11-11T16:11:14;9.87;;;7.37;;
8312;SDS011;4194;43.408;24.626;2022-11-11T16:13:44;8.47;;;5.97;;
8312;SDS011;4194;43.408;24.626;2022-11-11T16:16:32;10.30;;;6.10;;
8312;SDS011;4194;43.408;24.626;2022-11-11T16:21:29;9.37;;;5.87;;
8312;SDS011;4194;43.408;24.626;2022-11-11T16:23:56;10.63;;;7.40;;
8312;SDS011;4194;43.408;24.626;2022-11-11T16:26:23;8.03;;;6.80;;
8312;SDS011;4194;43.408;24.626;2022-11-11T16:28:53;7.43;;;6.20;;
8312;SDS011;4194;43.408;24.626;2022-11-11T16:33:56;8.53;;;7.07;;
8312;SDS011;4194;43.408;24.626;2022-11-11T16:36:21;10.70;;;7.43;;
8312;SDS011;4194;43.408;24.626;2022-11-11T16:38:47;12.60;;;9.15;;
8312;SDS011;4194;43.408;24.626;2022-11-11T16:43:48;12.30;;;9.47;;
8312;SDS011;4194;43.408;24.626;2022-11-11T16:46:15;10.83;;;8.77;;
8312;SDS011;4194;43.408;24.626;2022-11-11T16:49:02;16.47;;;10.77;;
8312;SDS011;4194;43.408;24.626;2022-11-11T16:51:43;14.67;;;10.00;;
8312;SDS011;4194;43.408;24.626;2022-11-11T16:54:11;11.83;;;10.30;;
8312;SDS011;4194;43.408;24.626;2022-11-11T16:56:41;17.40;;;13.03;;
8312;SDS011;4194;43.408;24.626;2022-11-11T16:59:15;16.57;;;13.93;;
8312;SDS011;4194;43.408;24.626;2022-11-11T17:01:56;23.53;;;16.60;;
8312;SDS011;4194;43.408;24.626;2022-11-11T17:04:22;18.80;;;13.17;;
8312;SDS011;4194;43.408;24.626;2022-11-11T17:06:58;17.77;;;12.37;;
8312;SDS011;4194;43.408;24.626;2022-11-11T17:09:28;16.83;;;13.50;;
8312;SDS011;4194;43.408;24.626;2022-11-11T17:11:57;17.53;;;14.53;;
8312;SDS011;4194;43.408;24.626;2022-11-11T17:14:23;20.27;;;16.60;;
8312;SDS011;4194;43.408;24.626;2022-11-11T17:16:50;26.33;;;18.70;;
8312;SDS011;4194;43.408;24.626;2022-11-11T17:19:16;21.03;;;18.30;;
8312;SDS011;4194;43.408;24.626;2022-11-11T17:21:42;23.50;;;19.20;;
8312;SDS011;4194;43.408;24.626;2022-11-11T17:24:08;25.47;;;20.40;;
8312;SDS011;4194;43.408;24.626;2022-11-11T17:26:33;26.07;;;20.47;;
8312;SDS011;4194;43.408;24.626;2022-11-11T17:28:59;28.67;;;22.67;;
8312;SDS011;4194;43.408;24.626;2022-11-11T17:31:25;30.57;;;22.20;;
8312;SDS011;4194;43.408;24.626;2022-11-11T17:33:50;24.73;;;19.33;;
8312;SDS011;4194;43.408;24.626;2022-11-11T17:36:16;22.83;;;17.33;;
8312;SDS011;4194;43.408;24.626;2022-11-11T17:38:42;22.60;;;18.63;;
8312;SDS011;4194;43.408;24.626;2022-11-11T17:41:12;23.40;;;18.03;;
8312;SDS011;4194;43.408;24.626;2022-11-11T17:43:38;27.67;;;19.57;;
8312;SDS011;4194;43.408;24.626;2022-11-11T17:46:04;25.93;;;18.60;;
8312;SDS011;4194;43.408;24.626;2022-11-11T17:48:30;28.13;;;18.97;;
8312;SDS011;4194;43.408;24.626;2022-11-11T17:50:56;23.90;;;18.17;;